createdAt,value
2023-12-10T00:02:35.283Z,100014.88
2023-12-10T00:05:20.734Z,100013.13
2023-12-10T00:08:06.154Z,100006.25
2023-12-10T00:10:51.638Z,100002.78
2023-12-10T00:13:37.127Z,100003.66
2023-12-10T00:16:22.561Z,100004.53
2023-12-10T00:19:08.113Z,99997.63
2023-12-10T00:21:53.768Z,99989.00
2023-12-10T00:24:39.478Z,100000.22
2023-12-10T00:27:25.366Z,100003.69
2023-12-10T00:30:11.335Z,100014.03
2023-12-10T00:32:56.810Z,100023.56
2023-12-10T00:35:42.504Z,100033.03
2023-12-10T00:38:28.518Z,100031.31
2023-12-10T00:41:14.993Z,100039.94
2023-12-10T00:44:00.651Z,100040.78
2023-12-10T00:46:46.050Z,100044.25
2023-12-10T00:49:31.602Z,100034.78
2023-12-10T00:52:17.467Z,100031.31
2023-12-10T00:55:02.837Z,100036.44
2023-12-10T00:57:48.346Z,100033.81
2023-12-10T01:00:33.793Z,100042.50
2023-12-10T01:03:19.819Z,100058.03
2023-12-10T01:06:05.738Z,100058.84
2023-12-10T01:08:51.229Z,100073.44
2023-12-10T01:11:36.553Z,100071.75
2023-12-10T01:14:21.951Z,100089.84
2023-12-10T01:17:09.509Z,100096.72
2023-12-10T01:19:55.101Z,100102.78
2023-12-10T01:22:41.997Z,100098.44
2023-12-10T01:25:28.222Z,100106.25
2023-12-10T01:28:13.740Z,100106.25
2023-12-10T01:30:59.314Z,100120.09
2023-12-10T01:33:45.655Z,100128.69
2023-12-10T01:36:31.509Z,100137.34
2023-12-10T01:39:17.175Z,100144.28
2023-12-10T01:42:02.747Z,100141.72
2023-12-10T01:44:48.464Z,100148.66
2023-12-10T01:47:36.750Z,100146.06
2023-12-10T01:50:23.096Z,100146.16
2023-12-10T01:53:09.521Z,100147.84
2023-12-10T01:55:55.336Z,100153.00
2023-12-10T01:58:41.630Z,100134.03
2023-12-10T02:01:28.239Z,100141.72
2023-12-10T02:04:15.841Z,100137.41
2023-12-10T02:07:01.315Z,100134.88
2023-12-10T02:09:47.135Z,100128.78
2023-12-10T02:12:35.833Z,100121.94
2023-12-10T02:15:22.543Z,100121.91
2023-12-10T02:18:08.370Z,100111.53
2023-12-10T02:20:53.815Z,100123.53
2023-12-10T02:23:51.226Z,100114.91
2023-12-10T02:26:38.376Z,100098.53
2023-12-10T02:29:24.153Z,100094.25
2023-12-10T02:32:09.801Z,100095.94
2023-12-10T02:34:55.157Z,100100.25
2023-12-10T02:37:40.659Z,100085.56
2023-12-10T02:40:26.533Z,100082.13
2023-12-10T02:43:12.100Z,100081.25
2023-12-10T02:45:57.783Z,100072.66
2023-12-10T02:48:43.210Z,100070.94
2023-12-10T02:51:28.684Z,100076.03
2023-12-10T02:54:14.200Z,100066.50
2023-12-10T02:56:59.833Z,100074.16
2023-12-10T02:59:45.579Z,100078.38
2023-12-10T03:02:31.158Z,100082.56
2023-12-10T03:05:17.060Z,100085.06
2023-12-10T03:08:02.819Z,100101.41
2023-12-10T03:10:48.380Z,100097.03
2023-12-10T03:13:33.989Z,100104.03
2023-12-10T03:16:19.457Z,100101.47
2023-12-10T03:19:05.574Z,100075.59
2023-12-10T03:21:51.406Z,100068.69
2023-12-10T03:24:37.099Z,100067.78
2023-12-10T03:27:23.265Z,100069.44
2023-12-10T03:30:09.703Z,100051.34
2023-12-10T03:32:55.221Z,100042.75
2023-12-10T03:35:40.702Z,100041.00
2023-12-10T03:38:26.230Z,100038.50
2023-12-10T03:41:11.665Z,100023.09
2023-12-10T03:43:57.148Z,100017.13
2023-12-10T03:46:42.648Z,100008.56
2023-12-10T03:49:29.768Z,99996.56
2023-12-10T03:52:15.140Z,99992.25
2023-12-10T03:55:00.730Z,99994.88
2023-12-10T03:57:47.438Z,99978.56
2023-12-10T04:00:32.989Z,99984.66
2023-12-10T04:03:18.377Z,99969.22
2023-12-10T04:06:04.294Z,99973.59
2023-12-10T04:08:50.257Z,99958.06
2023-12-10T04:11:37.214Z,99952.91
2023-12-10T04:14:22.941Z,99952.06
2023-12-10T04:17:08.497Z,99965.84
2023-12-10T04:19:54.012Z,99955.50
2023-12-10T04:22:39.336Z,99954.66
2023-12-10T04:25:24.854Z,99946.06
2023-12-10T04:28:10.410Z,99932.28
2023-12-10T04:30:56.048Z,99928.81
2023-12-10T04:33:43.316Z,99902.06
2023-12-10T04:36:29.155Z,99883.09
2023-12-10T04:39:16.829Z,99878.78
2023-12-10T04:42:02.562Z,99873.59
2023-12-10T04:44:48.294Z,99862.38
2023-12-10T04:47:34.071Z,99849.41
2023-12-10T04:50:19.850Z,99809.72
2023-12-10T04:53:05.604Z,99784.72
2023-12-10T04:55:51.125Z,99835.66
2023-12-10T04:58:36.492Z,99852.09
2023-12-10T05:01:22.050Z,99843.44
2023-12-10T05:04:07.480Z,99833.06
2023-12-10T05:06:53.497Z,99813.22
2023-12-10T05:09:39.058Z,99833.06
2023-12-10T05:12:24.980Z,99820.97
2023-12-10T05:15:10.886Z,99794.22
2023-12-10T05:17:56.450Z,99771.81
2023-12-10T05:20:42.012Z,99757.97
2023-12-10T05:23:27.621Z,99745.03
2023-12-10T05:26:12.956Z,99747.66
2023-12-10T05:28:58.662Z,99759.72
2023-12-10T05:31:44.360Z,99776.16
2023-12-10T05:34:30.051Z,99777.00
2023-12-10T05:37:15.555Z,99769.25
2023-12-10T05:40:00.982Z,99751.94
2023-12-10T05:42:46.401Z,99739.84
2023-12-10T05:45:31.847Z,99726.91
2023-12-10T05:48:17.431Z,99723.47
2023-12-10T05:51:04.777Z,99714.84
2023-12-10T05:53:52.107Z,99699.28
2023-12-10T05:56:38.675Z,99674.25
2023-12-10T05:59:24.252Z,99675.09
2023-12-10T06:02:09.762Z,99663.03
2023-12-10T06:04:55.356Z,99672.50
2023-12-10T06:07:40.809Z,99665.63
2023-12-10T06:10:26.333Z,99662.19
2023-12-10T06:13:12.328Z,99651.84
2023-12-10T06:15:58.964Z,99650.97
2023-12-10T06:18:44.703Z,99653.53
2023-12-10T06:21:31.524Z,99664.75
2023-12-10T06:24:18.110Z,99647.50
2023-12-10T06:27:03.650Z,99656.97
2023-12-10T06:29:49.164Z,99657.00
2023-12-10T06:32:34.837Z,99628.53
2023-12-10T06:35:20.298Z,99596.59
2023-12-10T06:38:05.732Z,99585.34
2023-12-10T06:40:52.532Z,99580.16
2023-12-10T06:43:38.126Z,99583.63
2023-12-10T06:46:23.787Z,99554.28
2023-12-10T06:49:09.610Z,99560.28
2023-12-10T06:51:55.056Z,99571.53
2023-12-10T06:54:41.452Z,99581.00
2023-12-10T06:57:26.971Z,99601.69
2023-12-10T07:00:13.406Z,99612.00
2023-12-10T07:02:59.144Z,99586.06
2023-12-10T07:05:44.818Z,99558.41
2023-12-10T07:08:31.279Z,99547.16
2023-12-10T07:11:16.828Z,99544.56
2023-12-10T07:14:02.252Z,99509.16
2023-12-10T07:16:47.996Z,99496.22
2023-12-10T07:19:33.759Z,99497.94
2023-12-10T07:22:19.440Z,99490.19
2023-12-10T07:25:08.195Z,99497.13
2023-12-10T07:27:54.383Z,99492.81
2023-12-10T07:30:40.248Z,99495.41
2023-12-10T07:33:25.988Z,99504.06
2023-12-10T07:36:12.501Z,99507.50
2023-12-10T07:38:58.249Z,99517.91
2023-12-10T07:41:43.811Z,99524.78
2023-12-10T07:44:29.655Z,99517.00
2023-12-10T07:47:15.346Z,99507.50
2023-12-10T07:50:00.680Z,99486.81
2023-12-10T07:52:46.141Z,99482.50
2023-12-10T07:55:31.574Z,99457.50
2023-12-10T07:58:17.146Z,99437.69
2023-12-10T08:01:03.759Z,99431.66
2023-12-10T08:03:49.482Z,99425.66
2023-12-10T08:06:35.254Z,99414.44
2023-12-10T08:09:21.004Z,99430.84
2023-12-10T08:12:06.804Z,99426.53
2023-12-10T08:14:52.583Z,99398.94
2023-12-10T08:17:38.299Z,99354.94
2023-12-10T08:20:23.871Z,99289.41
2023-12-10T08:23:09.414Z,99255.75
2023-12-10T08:25:54.759Z,99228.16
2023-12-10T08:28:40.249Z,99234.22
2023-12-10T08:31:26.801Z,99227.31
2023-12-10T08:34:12.641Z,99206.63
2023-12-10T08:36:58.645Z,99200.59
2023-12-10T08:39:44.639Z,99191.13
2023-12-10T08:42:32.354Z,99174.78
2023-12-10T08:45:19.253Z,99161.00
2023-12-10T08:48:05.076Z,99142.91
2023-12-10T08:50:50.620Z,99152.41
2023-12-10T08:53:36.410Z,99133.38
2023-12-10T08:56:21.796Z,99148.84
2023-12-10T08:59:07.348Z,99140.09
2023-12-10T09:01:52.909Z,99140.81
2023-12-10T09:04:38.314Z,99142.38
2023-12-10T09:07:23.643Z,99124.97
2023-12-10T09:10:12.579Z,99117.88
2023-12-10T09:12:59.323Z,99127.22
2023-12-10T09:15:45.228Z,99121.91
2023-12-10T09:18:31.229Z,99122.72
2023-12-10T09:21:16.814Z,99120.91
2023-12-10T09:24:02.259Z,99120.00
2023-12-10T09:26:47.827Z,99123.44
2023-12-10T09:29:39.765Z,99129.44
2023-12-10T09:32:28.900Z,99108.69
2023-12-10T09:35:14.974Z,99101.81
2023-12-10T09:38:01.757Z,99091.44
2023-12-10T09:40:47.436Z,99102.72
2023-12-10T09:43:33.330Z,99093.22
2023-12-10T09:46:18.963Z,99079.41
2023-12-10T09:49:05.213Z,99080.22
2023-12-10T09:51:50.646Z,99100.06
2023-12-10T09:54:40.973Z,99095.69
2023-12-10T09:57:29.345Z,99076.63
2023-12-10T10:00:15.595Z,99074.88
2023-12-10T10:03:02.852Z,99071.31
2023-12-10T10:05:48.987Z,99079.84
2023-12-10T10:08:34.536Z,99078.97
2023-12-10T10:11:19.937Z,99075.47
2023-12-10T10:14:05.983Z,99067.66
2023-12-10T10:16:51.382Z,99075.41
2023-12-10T10:19:37.149Z,99068.34
2023-12-10T10:22:24.996Z,99060.31
2023-12-10T10:25:10.541Z,99062.84
2023-12-10T10:27:56.578Z,99065.31
2023-12-10T10:30:42.362Z,99065.25
2023-12-10T10:33:29.049Z,99059.03
2023-12-10T10:36:17.526Z,99057.88
2023-12-10T10:39:03.074Z,99064.50
2023-12-10T10:41:50.642Z,99064.25
2023-12-10T10:44:42.858Z,99077.06
2023-12-10T10:47:29.503Z,99072.63
2023-12-10T10:50:22.432Z,99073.31
2023-12-10T10:53:11.391Z,99063.69
2023-12-10T10:55:57.470Z,99055.84
2023-12-10T10:58:43.008Z,99051.41
2023-12-10T11:01:41.739Z,99069.56
2023-12-10T11:04:40.538Z,99053.00
2023-12-10T11:07:26.853Z,99048.56
2023-12-10T11:10:12.645Z,99036.28
2023-12-10T11:12:59.154Z,99027.50
2023-12-10T11:15:44.496Z,99012.69
2023-12-10T11:18:30.097Z,99016.09
2023-12-10T11:21:15.968Z,98981.31
2023-12-10T11:24:01.497Z,98974.97
2023-12-10T11:26:47.814Z,98966.97
2023-12-10T11:29:33.367Z,98960.84
2023-12-10T11:32:18.645Z,98936.41
2023-12-10T11:35:04.483Z,98932.00
2023-12-10T11:37:50.257Z,98929.28
2023-12-10T11:40:35.952Z,98918.00
2023-12-10T11:43:21.566Z,98908.34
2023-12-10T11:46:07.084Z,98900.44
2023-12-10T11:48:53.030Z,98904.72
2023-12-10T11:51:41.824Z,98905.56
2023-12-10T11:54:27.724Z,98907.19
2023-12-10T11:57:13.683Z,98900.13
2023-12-10T12:00:02.585Z,98898.31
2023-12-10T12:02:57.896Z,98893.81
2023-12-10T12:05:51.896Z,98884.25
2023-12-10T12:08:38.291Z,98876.47
2023-12-10T12:11:23.810Z,98876.41
2023-12-10T12:14:17.100Z,98865.13
2023-12-10T12:17:05.088Z,98861.53
2023-12-10T12:19:50.877Z,98858.06
2023-12-10T12:22:36.903Z,98847.63
2023-12-10T12:25:23.300Z,98844.16
2023-12-10T12:28:08.811Z,98836.47
2023-12-10T12:30:54.476Z,98822.56
2023-12-10T12:33:40.667Z,98807.66
2023-12-10T12:36:26.681Z,98810.25
2023-12-10T12:39:13.018Z,98817.28
2023-12-10T12:41:58.449Z,98807.69
2023-12-10T12:44:43.919Z,98808.63
2023-12-10T12:47:29.922Z,98795.47
2023-12-10T12:50:16.149Z,98795.41
2023-12-10T12:53:01.798Z,98798.00
2023-12-10T12:55:47.242Z,98798.00
2023-12-10T12:58:32.975Z,98779.78
2023-12-10T13:01:18.873Z,98764.13
2023-12-10T13:04:04.948Z,98772.75
2023-12-10T13:06:50.432Z,98762.34
2023-12-10T13:09:36.011Z,98756.25
2023-12-10T13:12:22.470Z,98748.34
2023-12-10T13:15:09.319Z,98740.53
2023-12-10T13:17:55.066Z,98729.22
2023-12-10T13:20:40.484Z,98732.63
2023-12-10T13:23:25.840Z,98712.66
2023-12-10T13:26:11.864Z,98715.19
2023-12-10T13:28:57.378Z,98714.22
2023-12-10T13:31:43.184Z,98709.88
2023-12-10T13:34:29.209Z,98707.28
2023-12-10T13:37:14.716Z,98702.97
2023-12-10T13:40:00.186Z,98703.06
2023-12-10T13:42:46.158Z,98699.69
2023-12-10T13:45:31.575Z,98684.94
2023-12-10T13:48:17.218Z,98679.84
2023-12-10T13:51:02.674Z,98683.22
2023-12-10T13:53:48.233Z,98657.13
2023-12-10T13:56:34.777Z,98656.41
2023-12-10T13:59:20.550Z,98657.50
2023-12-10T14:02:08.490Z,98646.25
2023-12-10T14:04:53.979Z,98629.84
2023-12-10T14:07:42.191Z,98637.03
2023-12-10T14:10:28.017Z,98622.25
2023-12-10T14:13:13.541Z,98621.31
2023-12-10T14:15:59.031Z,98619.44
2023-12-10T14:18:44.456Z,98622.25
2023-12-10T14:21:32.537Z,98610.22
2023-12-10T14:24:18.924Z,98624.03
2023-12-10T14:27:04.394Z,98618.81
2023-12-10T14:29:50.127Z,98605.13
2023-12-10T14:32:35.681Z,98606.91
2023-12-10T14:35:21.164Z,98609.41
2023-12-10T14:38:06.860Z,98606.16
2023-12-10T14:40:52.620Z,98611.41
2023-12-10T14:43:38.300Z,98597.63
2023-12-10T14:46:23.822Z,98589.72
2023-12-10T14:49:09.767Z,98596.53
2023-12-10T14:51:55.551Z,98590.38
2023-12-10T14:54:40.914Z,98595.69
2023-12-10T14:57:26.658Z,98576.63
2023-12-10T15:00:12.920Z,98570.34
2023-12-10T15:02:58.390Z,98572.94
2023-12-10T15:05:44.058Z,98552.94
2023-12-10T15:08:35.853Z,98539.81
2023-12-10T15:11:21.383Z,98542.31
2023-12-10T15:14:06.670Z,98542.09
2023-12-10T15:16:52.268Z,98516.84
2023-12-10T15:19:44.392Z,98505.47
2023-12-10T15:22:30.336Z,98510.72
2023-12-10T15:25:15.860Z,98496.94
2023-12-10T15:28:02.033Z,98478.09
2023-12-10T15:30:47.748Z,98499.00
2023-12-10T15:33:33.096Z,98494.72
2023-12-10T15:36:20.898Z,98484.44
2023-12-10T15:39:06.891Z,98490.88
2023-12-10T15:41:53.963Z,98492.19
2023-12-10T15:44:39.482Z,98495.09
2023-12-10T15:47:24.867Z,98494.69
2023-12-10T15:50:10.821Z,98483.00
2023-12-10T15:52:56.715Z,98476.69
2023-12-10T15:55:42.386Z,98471.72
2023-12-10T15:58:28.034Z,98470.06
2023-12-10T16:01:16.541Z,98447.44
2023-12-10T16:04:04.522Z,98447.47
2023-12-10T16:06:50.546Z,98433.00
2023-12-10T16:09:36.053Z,98411.31
2023-12-10T16:12:21.513Z,98412.28
2023-12-10T16:15:07.658Z,98400.25
2023-12-10T16:17:53.540Z,98396.91
2023-12-10T16:20:40.034Z,98401.28
2023-12-10T16:23:25.752Z,98393.59
2023-12-10T16:26:11.439Z,98369.25
2023-12-10T16:28:57.704Z,98376.19
2023-12-10T16:31:43.341Z,98360.59
2023-12-10T16:34:28.967Z,98349.31
2023-12-10T16:37:16.926Z,98353.63
2023-12-10T16:40:06.175Z,98345.94
2023-12-10T16:42:52.146Z,98333.97
2023-12-10T16:45:37.810Z,98334.13
2023-12-10T16:48:24.853Z,98322.75
2023-12-10T16:51:11.026Z,98331.38
2023-12-10T16:53:56.598Z,98300.25
2023-12-10T16:56:42.570Z,98280.47
2023-12-10T16:59:28.990Z,98281.19
2023-12-10T17:02:14.811Z,98256.13
2023-12-10T17:05:02.551Z,98252.63
2023-12-10T17:07:48.274Z,98222.22
2023-12-10T17:10:34.454Z,98208.28
2023-12-10T17:13:19.981Z,98198.88
2023-12-10T17:16:05.860Z,98200.81
2023-12-10T17:18:51.311Z,98201.72
2023-12-10T17:21:36.687Z,98208.72
2023-12-10T17:24:22.257Z,98185.28
2023-12-10T17:27:07.928Z,98179.97
2023-12-10T17:29:53.404Z,98159.97
2023-12-10T17:32:39.313Z,98157.38
2023-12-10T17:35:25.462Z,98150.53
2023-12-10T17:38:10.999Z,98161.06
2023-12-10T17:40:56.618Z,98129.78
2023-12-10T17:43:42.347Z,98132.38
2023-12-10T17:46:27.904Z,98116.75
2023-12-10T17:49:13.833Z,98107.19
2023-12-10T17:51:59.838Z,98101.88
2023-12-10T17:54:45.574Z,98094.91
2023-12-10T17:57:31.663Z,98095.75
2023-12-10T18:00:17.895Z,98086.28
2023-12-10T18:03:03.942Z,98088.00
2023-12-10T18:05:49.556Z,98092.97
2023-12-10T18:08:35.178Z,98083.16
2023-12-10T18:11:20.726Z,98090.00
2023-12-10T18:14:06.903Z,98095.19
2023-12-10T18:16:52.743Z,98065.53
2023-12-10T18:19:38.424Z,98072.31
2023-12-10T18:22:24.952Z,98057.59
2023-12-10T18:25:10.706Z,98081.75
2023-12-10T18:27:56.182Z,98084.16
2023-12-10T18:30:43.079Z,98086.69
2023-12-10T18:33:28.775Z,98096.22
2023-12-10T18:36:15.072Z,98114.22
2023-12-10T18:39:01.042Z,98088.88
2023-12-10T18:41:46.654Z,98142.53
2023-12-10T18:44:34.022Z,98140.69
2023-12-10T18:47:19.758Z,98155.81
2023-12-10T18:50:05.677Z,98138.13
2023-12-10T18:52:51.251Z,98136.22
2023-12-10T18:55:36.825Z,98156.97
2023-12-10T18:58:22.471Z,98147.31
2023-12-10T19:01:08.106Z,98165.28
2023-12-10T19:03:54.076Z,98176.44
2023-12-10T19:06:39.460Z,98202.34
2023-12-10T19:09:26.324Z,98185.91
2023-12-10T19:12:11.676Z,98215.34
2023-12-10T19:14:57.228Z,98234.47
2023-12-10T19:17:42.841Z,98234.47
2023-12-10T19:20:28.733Z,98276.22
2023-12-10T19:23:14.521Z,98283.25
2023-12-10T19:25:59.988Z,98302.47
2023-12-10T19:28:46.827Z,98358.94
2023-12-10T19:31:32.487Z,98348.53
2023-12-10T19:34:18.053Z,98355.66
2023-12-10T19:37:03.634Z,98365.31
2023-12-10T19:39:49.131Z,98377.59
2023-12-10T19:42:34.749Z,98407.03
2023-12-10T19:45:20.215Z,98426.16
2023-12-10T19:48:05.796Z,98446.16
2023-12-10T19:50:51.049Z,98462.66
2023-12-10T19:53:36.549Z,98485.19
2023-12-10T19:56:22.379Z,98480.88
2023-12-10T19:59:07.951Z,98500.03
2023-12-10T20:01:53.603Z,98514.88
2023-12-10T20:04:39.578Z,98535.78
2023-12-10T20:07:25.514Z,98555.72
2023-12-10T20:10:11.566Z,98551.44
2023-12-10T20:12:57.126Z,98574.06
2023-12-10T20:15:43.222Z,98601.94
2023-12-10T20:18:29.703Z,98605.47
2023-12-10T20:21:15.485Z,98617.69
2023-12-10T20:24:00.972Z,98651.50
2023-12-10T20:26:47.705Z,98655.16
2023-12-10T20:29:33.195Z,98667.31
2023-12-10T20:32:18.929Z,98693.31
2023-12-10T20:35:04.859Z,98694.28
2023-12-10T20:37:50.287Z,98735.88
2023-12-10T20:40:38.810Z,98745.53
2023-12-10T20:43:25.382Z,98757.66
2023-12-10T20:46:11.249Z,98808.06
2023-12-10T20:48:57.908Z,98796.78
2023-12-10T20:51:45.611Z,98795.97
2023-12-10T20:54:32.735Z,98817.66
2023-12-10T20:57:18.338Z,98827.22
2023-12-10T21:00:07.581Z,98834.13
2023-12-10T21:02:53.277Z,98863.63
2023-12-10T21:05:39.867Z,98865.28
2023-12-10T21:08:26.837Z,98880.84
2023-12-10T21:11:12.418Z,98895.59
2023-12-10T21:14:00.713Z,98900.78
2023-12-10T21:16:46.394Z,98925.06
2023-12-10T21:19:32.454Z,98919.03
2023-12-10T21:22:18.477Z,98955.44
2023-12-10T21:25:04.036Z,98952.88
2023-12-10T21:27:49.771Z,98965.03
2023-12-10T21:30:36.462Z,98967.69
2023-12-10T21:33:22.065Z,98982.47
2023-12-10T21:36:07.933Z,98995.50
2023-12-10T21:38:53.279Z,99007.66
2023-12-10T21:41:38.662Z,99009.38
2023-12-10T21:44:24.238Z,99031.91
2023-12-10T21:47:09.511Z,99037.97
2023-12-10T21:49:55.050Z,99033.69
2023-12-10T21:52:40.450Z,99044.09
2023-12-10T21:55:25.924Z,99057.09
2023-12-10T21:58:11.653Z,99063.16
2023-12-10T22:01:00.355Z,99072.66
2023-12-10T22:03:46.628Z,99096.00
2023-12-10T22:06:32.276Z,99105.56
2023-12-10T22:09:17.701Z,99111.63
2023-12-10T22:12:03.258Z,99124.59
2023-12-10T22:14:50.697Z,99129.78
2023-12-10T22:17:37.952Z,99135.84
2023-12-10T22:20:23.156Z,99150.50
2023-12-10T22:23:08.702Z,99150.41
2023-12-10T22:25:54.155Z,99158.16
2023-12-10T22:28:39.932Z,99172.09
2023-12-10T22:31:25.633Z,99178.16
2023-12-10T22:34:11.314Z,99185.13
2023-12-10T22:36:57.085Z,99190.41
2023-12-10T22:39:43.157Z,99193.13
2023-12-10T22:42:28.698Z,99206.22
2023-12-10T22:45:14.539Z,99217.59
2023-12-10T22:48:00.111Z,99228.16
2023-12-10T22:50:45.953Z,99241.31
2023-12-10T22:53:31.586Z,99240.38
2023-12-10T22:56:17.094Z,99268.91
2023-12-10T22:59:02.536Z,99274.06
2023-12-10T23:01:48.001Z,99269.84
2023-12-10T23:04:33.651Z,99277.69
2023-12-10T23:07:19.097Z,99286.44
2023-12-10T23:10:06.146Z,99293.47
2023-12-10T23:12:51.888Z,99301.31
2023-12-10T23:15:37.718Z,99314.34
2023-12-10T23:18:23.153Z,99320.41
2023-12-10T23:21:08.728Z,99335.13
2023-12-10T23:23:54.876Z,99338.59
2023-12-10T23:26:40.553Z,99355.00
2023-12-10T23:29:26.063Z,99351.56
2023-12-10T23:32:11.721Z,99361.09
2023-12-10T23:34:57.549Z,99361.16
2023-12-10T23:37:43.028Z,99356.88
2023-12-10T23:40:28.491Z,99376.00
2023-12-10T23:43:14.109Z,99376.09
2023-12-10T23:45:59.665Z,99372.66
2023-12-10T23:48:45.124Z,99383.13
2023-12-10T23:51:31.015Z,99387.50
2023-12-10T23:54:16.537Z,99389.22
2023-12-10T23:57:01.970Z,99391.06
2023-12-10T23:59:47.425Z,99400.63
